Hovedside
METAR-TAF:

METAR-TAF

Lufthavner :

Kuressaare, Estland

Kuressaare lufthavn

breddegrad: 58-13-48N, lengdegrad: 022-30-34E, høyde over havet: 4 m

Gjeldene værobservasjon

Denne rapporten ble laget for 24 minutter siden, klokken 05:50 UTC
Vind 5 kt fra Nordvest
Temperatur 0°C
Luftfuktighet 93%
Trykk 1023 hPa
Sikt 10 km eller mer
ingen skyer under 1500 m og ingen bygeskyer

METAR: EEKE 240550Z 32005KT CAVOK 00/M01 Q1023

Tid: 08:14 (06:14 UTC)

Varsel

Denne rapporten ble laget for 15 timer og 14 minutter siden, klokken 15:00 UTC
Varsel gyldig fra 23. klokken 16 UTC til 23. klokken 22 UTC
Vind 10 kt fra Vest-sørvest
Sikt 10 km eller mer
Spredte skyer i en høyde av 3000 ft
Sannsynlighet 30% :
Midlertidig
fra 23. klokken 20 UTC til 23. klokken 22 UTC
Sikt: 2000 m
Brutte skyer i en høyde av 300 ft
dis

TAF: EEKE 231500Z 2316/2322 24010KT 9999 SCT030 PROB30 TEMPO 2320/2322 2000 BR BKN003

Værobservasjoner og værvarsel for over 4000 flyplasser (METAR- og TAF-rapporter).

Tilgjengelige stasjoner er representert av de røde og gule prikkene på kartet.

Hold musepekeren over prikken for å se navnet på stasjonen.

Klikk så for å se værobservasjoner og -varsler.

For å forandre kartet kan du klikke på den grønne knappen med svart kryss for å zoome inn, på den grønne knappen med strek for å zoome ut, eller på de grønne pilene for å se tilstøtende kart.


METAR-TAF: